Terminal Aerodrome Forecast
Issued by NWS

Home | Current Version | Previous Version | Graphics & Text | Print | Product List | Glossary On
Versions: 1 2 3 4 5 6 7 8 9 10 11 12 13 14 15 16 17 18 19 20 21 22 23
686
FTUS43 KMPX 231215 CCA
TAFRWF
TAF COR
KRWF 231215Z 2312/2412 27007KT 5SM BR SCT015
     FM231300 29010KT P6SM BKN010
      TEMPO 2313/2315 SCT015
     FM232300 31008KT P6SM SCT015
     FM240900 11003KT 6SM BR OVC015=

USA.gov is the U.S. government's official web portal to all federal, state and local government web resources and services.